createdAt,value
2023-04-08T00:00:00.578Z,5
2023-04-08T00:05:00.786Z,5
2023-04-08T00:10:00.674Z,5
2023-04-08T00:15:00.639Z,4.9
2023-04-08T00:20:00.596Z,4.9
2023-04-08T00:25:00.675Z,4.9
2023-04-08T00:30:00.654Z,4.9
2023-04-08T00:35:00.628Z,4.8
2023-04-08T00:40:00.621Z,4.8
2023-04-08T00:45:00.593Z,4.8
2023-04-08T00:50:00.664Z,4.8
2023-04-08T01:00:00.587Z,4.8
2023-04-08T01:05:00.624Z,4.9
2023-04-08T01:10:00.711Z,4.9
2023-04-08T01:15:00.656Z,4.9
2023-04-08T01:20:00.584Z,4.9
2023-04-08T01:25:00.750Z,5
2023-04-08T01:30:00.646Z,5
2023-04-08T01:35:00.670Z,5
2023-04-08T01:40:00.572Z,5.1
2023-04-08T01:45:00.691Z,5
2023-04-08T01:50:00.697Z,5
2023-04-08T01:55:00.658Z,5.1
2023-04-08T02:00:00.673Z,5.1
2023-04-08T02:05:00.640Z,5.2
2023-04-08T02:10:00.676Z,5.2
2023-04-08T02:15:00.644Z,5.2
2023-04-08T02:20:00.644Z,5.2
2023-04-08T02:25:00.690Z,5.3
2023-04-08T02:30:00.690Z,5.3
2023-04-08T02:35:00.719Z,5.3
2023-04-08T02:40:00.614Z,5.3
2023-04-08T02:45:00.706Z,5.4
2023-04-08T02:50:00.717Z,5.4
2023-04-08T02:55:00.664Z,5.4
2023-04-08T03:00:00.686Z,5.4
2023-04-08T03:05:00.602Z,5.4
2023-04-08T03:10:00.605Z,5.4
2023-04-08T03:20:00.680Z,5.4
2023-04-08T03:25:00.769Z,5.4
2023-04-08T03:30:00.627Z,5.4
2023-04-08T03:35:00.711Z,5.4
2023-04-08T03:40:00.670Z,5.4
2023-04-08T03:45:00.904Z,5.4
2023-04-08T03:50:00.692Z,5.4
2023-04-08T03:55:00.766Z,5.5
2023-04-08T04:00:00.603Z,5.5
2023-04-08T04:05:00.710Z,5.5
2023-04-08T04:10:00.657Z,5.5
2023-04-08T04:15:00.672Z,5.5
2023-04-08T04:20:00.620Z,5.5
2023-04-08T04:25:00.610Z,5.5
2023-04-08T04:35:00.770Z,5.5
2023-04-08T04:40:00.596Z,5.5
2023-04-08T04:45:00.618Z,5.6
2023-04-08T04:50:00.660Z,5.6
2023-04-08T04:55:00.599Z,5.6
2023-04-08T05:00:01.792Z,5.6
2023-04-08T05:05:00.998Z,5.6
2023-04-08T05:10:00.674Z,5.6
2023-04-08T05:15:00.610Z,5.7
2023-04-08T05:20:00.633Z,5.7
2023-04-08T05:25:00.694Z,5.7
2023-04-08T05:30:00.709Z,5.7
2023-04-08T05:35:00.614Z,5.7
2023-04-08T05:40:00.629Z,5.7
2023-04-08T05:45:00.649Z,5.7
2023-04-08T05:55:00.669Z,5.7
2023-04-08T06:00:00.664Z,5.7
2023-04-08T06:05:00.687Z,5.8
2023-04-08T06:10:00.589Z,5.8
2023-04-08T06:15:00.634Z,5.8
2023-04-08T06:20:00.642Z,5.8
2023-04-08T06:25:00.706Z,5.9
2023-04-08T06:30:00.615Z,5.9
2023-04-08T06:35:00.626Z,5.9
2023-04-08T06:40:00.586Z,5.9
2023-04-08T06:45:00.630Z,6
2023-04-08T06:50:00.673Z,6.1
2023-04-08T06:55:00.625Z,6.1
2023-04-08T07:00:00.651Z,6.1
2023-04-08T07:05:00.649Z,6.1
2023-04-08T07:10:00.572Z,6.1
2023-04-08T07:15:00.666Z,6.2
2023-04-08T07:20:00.561Z,6.3
2023-04-08T07:25:00.590Z,6.3
2023-04-08T07:30:00.671Z,6.3
2023-04-08T07:35:00.707Z,6.3
2023-04-08T07:40:00.613Z,6.2
2023-04-08T07:45:00.692Z,6.1
2023-04-08T07:50:00.617Z,6.2
2023-04-08T08:00:00.623Z,6.2
2023-04-08T08:05:00.677Z,6.2
2023-04-08T08:10:00.599Z,6.2
2023-04-08T08:25:00.640Z,6.4
2023-04-08T08:30:00.614Z,6.3
2023-04-08T08:35:00.574Z,6.3
2023-04-08T09:05:00.889Z,6.5
2023-04-08T09:10:00.607Z,6.4
2023-04-08T09:15:00.679Z,6.4
2023-04-08T09:20:00.592Z,6.4
2023-04-08T09:25:00.637Z,6.4
2023-04-08T09:30:00.596Z,6.5
2023-04-08T09:35:00.649Z,6.4
2023-04-08T09:40:00.668Z,6.3
2023-04-08T09:45:00.690Z,6.4
2023-04-08T09:50:00.769Z,6.3
2023-04-08T09:55:00.628Z,6.3
2023-04-08T10:00:00.680Z,6.3
2023-04-08T10:05:00.662Z,6.3
2023-04-08T10:10:00.607Z,6.4
2023-04-08T10:15:00.656Z,6.4
2023-04-08T10:20:00.686Z,6.6
2023-04-08T10:25:00.601Z,6.5
2023-04-08T10:30:00.614Z,6.5
2023-04-08T10:35:00.593Z,6.5
2023-04-08T10:40:00.603Z,6.4
2023-04-08T10:45:00.603Z,6.3
2023-04-08T10:50:00.612Z,6.4
2023-04-08T10:55:00.566Z,6.4
2023-04-08T11:05:00.692Z,6.6
2023-04-08T11:15:00.698Z,6.4
2023-04-08T11:20:00.584Z,6.3
2023-04-08T11:25:00.583Z,6.2
2023-04-08T11:30:00.583Z,6.4
2023-04-08T11:35:00.600Z,6.3
2023-04-08T11:40:00.603Z,6.3
2023-04-08T11:50:00.666Z,6.2
2023-04-08T11:55:00.633Z,6.2
2023-04-08T12:00:00.596Z,6.1
2023-04-08T12:05:00.732Z,6.1
2023-04-08T12:10:00.614Z,6.1
2023-04-08T12:15:00.600Z,6.2
2023-04-08T12:20:00.646Z,6.3
2023-04-08T12:25:00.651Z,6.6
2023-04-08T12:30:00.578Z,6.5
2023-04-08T12:35:00.680Z,6.7
2023-04-08T12:40:00.735Z,6.6
2023-04-08T12:45:00.722Z,6.4
2023-04-08T12:50:00.609Z,6.4
2023-04-08T12:55:00.641Z,6.2
2023-04-08T13:00:00.667Z,6.3
2023-04-08T13:05:00.647Z,6.3
2023-04-08T13:10:00.693Z,6.4
2023-04-08T13:20:00.593Z,6.3
2023-04-08T13:25:00.627Z,6.2
2023-04-08T13:30:00.602Z,6.4
2023-04-08T13:35:00.727Z,6.4
2023-04-08T13:40:00.701Z,6.3
2023-04-08T13:45:00.756Z,6.2
2023-04-08T13:50:00.816Z,6.2
2023-04-08T13:55:00.903Z,6.1
2023-04-08T14:05:00.610Z,6.3
2023-04-08T14:10:00.658Z,6.3
2023-04-08T14:15:00.682Z,6.1
2023-04-08T14:20:00.664Z,6.2
2023-04-08T14:25:00.622Z,6.2
2023-04-08T14:35:00.642Z,6
2023-04-08T14:40:00.695Z,6.1
2023-04-08T14:45:00.622Z,6
2023-04-08T14:50:00.677Z,6
2023-04-08T14:55:00.706Z,6
2023-04-08T15:00:00.610Z,6
2023-04-08T15:05:00.649Z,6.1
2023-04-08T15:10:00.741Z,6.1
2023-04-08T15:15:00.708Z,6
2023-04-08T15:20:00.727Z,6.1
2023-04-08T15:25:00.620Z,6
2023-04-08T15:30:00.655Z,6.1
2023-04-08T15:40:00.722Z,6
2023-04-08T15:45:00.625Z,6.1
2023-04-08T15:50:00.644Z,6.1
2023-04-08T15:55:00.585Z,6
2023-04-08T16:00:00.675Z,6
2023-04-08T16:05:00.612Z,6.1
2023-04-08T16:10:00.646Z,6.1
2023-04-08T16:20:00.605Z,6.1
2023-04-08T16:25:00.603Z,6.1
2023-04-08T16:30:00.586Z,6.1
2023-04-08T16:35:00.631Z,6.1
2023-04-08T16:40:00.584Z,6.2
2023-04-08T16:45:00.629Z,6.2
2023-04-08T17:00:00.598Z,6.2
2023-04-08T17:05:00.630Z,6.3
2023-04-08T17:10:00.657Z,6.3
2023-04-08T17:15:00.628Z,6.3
2023-04-08T17:20:00.603Z,6.4
2023-04-08T17:25:00.766Z,6.4
2023-04-08T17:30:00.824Z,6.3
2023-04-08T17:35:00.804Z,6.4
2023-04-08T17:40:00.577Z,6.3
2023-04-08T17:45:00.665Z,6.4
2023-04-08T17:50:00.707Z,6.5
2023-04-08T17:55:00.724Z,6.4
2023-04-08T18:00:00.609Z,6.5
2023-04-08T18:05:00.716Z,6.4
2023-04-08T18:10:00.884Z,6.5
2023-04-08T18:15:00.617Z,6.4
2023-04-08T18:20:00.636Z,6.3
2023-04-08T18:25:00.740Z,6.3
2023-04-08T18:30:00.702Z,6.4
2023-04-08T18:35:00.678Z,6.3
2023-04-08T18:40:00.637Z,6.3
2023-04-08T18:45:00.622Z,6.2
2023-04-08T18:50:00.793Z,6.2
2023-04-08T18:55:00.719Z,6.2
2023-04-08T19:00:00.692Z,6.2
2023-04-08T19:05:00.624Z,6.2
2023-04-08T19:10:00.589Z,6.1
2023-04-08T19:15:00.637Z,6.2
2023-04-08T19:20:00.585Z,6.2
2023-04-08T19:25:00.641Z,6.2
2023-04-08T19:30:00.622Z,6.2
2023-04-08T19:35:00.646Z,6.3
2023-04-08T19:40:00.597Z,6.4
2023-04-08T19:45:00.584Z,6.4
2023-04-08T19:50:00.678Z,6.5
2023-04-08T19:55:00.590Z,6.5
2023-04-08T20:00:00.680Z,6.5
2023-04-08T20:05:00.647Z,6.6
2023-04-08T20:10:00.567Z,6.6
2023-04-08T20:15:00.621Z,6.6
2023-04-08T20:20:00.636Z,6.6
2023-04-08T20:25:00.767Z,6.7
2023-04-08T20:30:00.604Z,6.6
2023-04-08T20:35:00.778Z,6.6
2023-04-08T20:40:00.951Z,6.6
2023-04-08T20:45:00.736Z,6.6
2023-04-08T20:50:00.724Z,6.7
2023-04-08T20:55:00.705Z,6.7
2023-04-08T21:00:00.720Z,6.6
2023-04-08T21:05:00.713Z,6.6
2023-04-08T21:10:00.708Z,6.6
2023-04-08T21:20:00.662Z,6.6
2023-04-08T21:25:00.697Z,6.5
2023-04-08T21:30:00.706Z,6.5
2023-04-08T21:35:00.630Z,6.5
2023-04-08T21:40:00.703Z,6.5
2023-04-08T21:45:00.697Z,6.5
2023-04-08T21:50:00.588Z,6.5
2023-04-08T21:55:00.583Z,6.3
2023-04-08T22:00:00.698Z,6.3
2023-04-08T22:05:00.777Z,6.3
2023-04-08T22:10:01.863Z,6.2
2023-04-08T22:15:00.701Z,6.2
2023-04-08T22:20:00.720Z,6.1
2023-04-08T22:25:00.657Z,6.1
2023-04-08T22:35:00.637Z,6.1
2023-04-08T22:40:00.739Z,6.1
2023-04-08T22:45:00.690Z,6.1
2023-04-08T22:50:00.644Z,6
2023-04-08T22:55:00.813Z,6
2023-04-08T23:00:02.162Z,6
2023-04-08T23:05:00.702Z,6
2023-04-08T23:10:00.685Z,6
2023-04-08T23:15:00.682Z,6
2023-04-08T23:20:00.626Z,6
2023-04-08T23:25:00.792Z,5.9
2023-04-08T23:30:00.672Z,5.9
2023-04-08T23:35:00.745Z,5.9
2023-04-08T23:40:00.707Z,5.8
2023-04-08T23:45:00.721Z,5.7
2023-04-08T23:50:00.793Z,5.7
2023-04-08T23:55:00.668Z,5.7
